<?xml version="1.0" encoding="UTF-8" standalone="no" ?>
<gpx xmlns="http://www.topografix.com/GPX/1/1" xmlns:xsi="http://www.w3.org/2001/XMLSchema-instance" xsi:schemaLocation="http://www.topografix.com/GPX/1/1 http://www.topografix.com/GPX/1/1/gpx.xsd" version="1.1" creator="VisuGPX - https://www.visugpx.com">
  <metadata>
    <name>24 03 19 VTT</name>
    <desc><![CDATA[24 03 19 randonnée VTT, près de BRAS]]></desc>
  </metadata>
  <trk>
    <name><![CDATA[Tracé actuel: 24 MARS 2019 11:00]]></name>
    <trkseg>
      <trkpt lat="43.43956" lon="5.86022">
        <ele>348.62</ele>
        <time>2019-03-24T10:00:55Z</time>
      </trkpt>
      <trkpt lat="43.43955" lon="5.86022">
        <ele>348.62</ele>
        <time>2019-03-24T10:00:56Z</time>
      </trkpt>
      <trkpt lat="43.43955" lon="5.86021">
        <ele>351.02</ele>
        <time>2019-03-24T10:01:00Z</time>
      </trkpt>
      <trkpt lat="43.43959" lon="5.86022">
        <ele>351.02</ele>
        <time>2019-03-24T10:01:35Z</time>
      </trkpt>
      <trkpt lat="43.43958" lon="5.86022">
        <ele>351.5</ele>
        <time>2019-03-24T10:02:13Z</time>
      </trkpt>
      <trkpt lat="43.43958" lon="5.86025">
        <ele>351.5</ele>
        <time>2019-03-24T10:02:43Z</time>
      </trkpt>
      <trkpt lat="43.4396" lon="5.86027">
        <ele>351.5</ele>
        <time>2019-03-24T10:03:18Z</time>
      </trkpt>
      <trkpt lat="43.43959" lon="5.86025">
        <ele>351.5</ele>
        <time>2019-03-24T10:03:53Z</time>
      </trkpt>
      <trkpt lat="43.43959" lon="5.86028">
        <ele>351.98</ele>
        <time>2019-03-24T10:04:35Z</time>
      </trkpt>
      <trkpt lat="43.43962" lon="5.86026">
        <ele>351.98</ele>
        <time>2019-03-24T10:05:07Z</time>
      </trkpt>
      <trkpt lat="43.43963" lon="5.86026">
        <ele>351.98</ele>
        <time>2019-03-24T10:05:27Z</time>
      </trkpt>
      <trkpt lat="43.4396" lon="5.86025">
        <ele>352.46</ele>
        <time>2019-03-24T10:05:49Z</time>
      </trkpt>
      <trkpt lat="43.43959" lon="5.86023">
        <ele>352.46</ele>
        <time>2019-03-24T10:06:07Z</time>
      </trkpt>
      <trkpt lat="43.43959" lon="5.86022">
        <ele>352.46</ele>
        <time>2019-03-24T10:06:39Z</time>
      </trkpt>
      <trkpt lat="43.43954" lon="5.8602">
        <ele>352.46</ele>
        <time>2019-03-24T10:07:06Z</time>
      </trkpt>
      <trkpt lat="43.43953" lon="5.86019">
        <ele>352.94</ele>
        <time>2019-03-24T10:07:30Z</time>
      </trkpt>
      <trkpt lat="43.43953" lon="5.86018">
        <ele>352.94</ele>
        <time>2019-03-24T10:08:00Z</time>
      </trkpt>
      <trkpt lat="43.43953" lon="5.86019">
        <ele>352.94</ele>
        <time>2019-03-24T10:08:30Z</time>
      </trkpt>
      <trkpt lat="43.43953" lon="5.86022">
        <ele>352.94</ele>
        <time>2019-03-24T10:09:02Z</time>
      </trkpt>
      <trkpt lat="43.4395" lon="5.86021">
        <ele>353.42</ele>
        <time>2019-03-24T10:09:35Z</time>
      </trkpt>
      <trkpt lat="43.4395" lon="5.86025">
        <ele>353.42</ele>
        <time>2019-03-24T10:10:15Z</time>
      </trkpt>
      <trkpt lat="43.43952" lon="5.86022">
        <ele>353.9</ele>
        <time>2019-03-24T10:10:54Z</time>
      </trkpt>
      <trkpt lat="43.43951" lon="5.86022">
        <ele>355.34</ele>
        <time>2019-03-24T10:11:28Z</time>
      </trkpt>
      <trkpt lat="43.43954" lon="5.86023">
        <ele>355.34</ele>
        <time>2019-03-24T10:12:10Z</time>
      </trkpt>
      <trkpt lat="43.43955" lon="5.86022">
        <ele>355.34</ele>
        <time>2019-03-24T10:12:50Z</time>
      </trkpt>
      <trkpt lat="43.43956" lon="5.86024">
        <ele>355.34</ele>
        <time>2019-03-24T10:13:20Z</time>
      </trkpt>
      <trkpt lat="43.43959" lon="5.86024">
        <ele>355.34</ele>
        <time>2019-03-24T10:13:58Z</time>
      </trkpt>
      <trkpt lat="43.43961" lon="5.86024">
        <ele>355.83</ele>
        <time>2019-03-24T10:14:39Z</time>
      </trkpt>
      <trkpt lat="43.4396" lon="5.86023">
        <ele>355.83</ele>
        <time>2019-03-24T10:15:22Z</time>
      </trkpt>
      <trkpt lat="43.43958" lon="5.86023">
        <ele>355.83</ele>
        <time>2019-03-24T10:16:00Z</time>
      </trkpt>
      <trkpt lat="43.43959" lon="5.86023">
        <ele>355.83</ele>
        <time>2019-03-24T10:16:39Z</time>
      </trkpt>
      <trkpt lat="43.43961" lon="5.86024">
        <ele>355.83</ele>
        <time>2019-03-24T10:17:14Z</time>
      </trkpt>
      <trkpt lat="43.43958" lon="5.86023">
        <ele>356.31</ele>
        <time>2019-03-24T10:17:57Z</time>
      </trkpt>
      <trkpt lat="43.43955" lon="5.8602">
        <ele>356.31</ele>
        <time>2019-03-24T10:18:35Z</time>
      </trkpt>
      <trkpt lat="43.43959" lon="5.86023">
        <ele>356.31</ele>
        <time>2019-03-24T10:19:16Z</time>
      </trkpt>
      <trkpt lat="43.43958" lon="5.86023">
        <ele>356.79</ele>
        <time>2019-03-24T10:19:55Z</time>
      </trkpt>
      <trkpt lat="43.43956" lon="5.86023">
        <ele>357.75</ele>
        <time>2019-03-24T10:20:18Z</time>
      </trkpt>
    </trkseg>
  </trk>
</gpx>